Time;durP1;ratioP1;P1;durP2;ratioP2;P2;SDS_P1;SDS_P2;PMS_P1;PMS_P2;Temp;Humidity;BMP_temperature;BMP_pressure;BME280_temperature;BME280_humidity;BME280_pressure;Samples;Min_cycle;Max_cycle;Signal;HPM_P1;HPM_P2
2023/10/15 00:00:19;;;;;;;10.93;2.45;;;;;;;;;;5048806;28;20512;-72
2023/10/15 00:02:48;;;;;;;11.43;1.40;;;;;;;;;;5041351;28;20045;-72
2023/10/15 00:05:15;;;;;;;5.90;1.52;;;;;;;;;;5037897;28;20058;-72
2023/10/15 00:07:42;;;;;;;9.13;1.60;;;;;;;;;;5046065;28;20088;-72
2023/10/15 00:10:12;;;;;;;20.00;3.05;;;;;;;;;;5048219;28;20175;-72
2023/10/15 00:12:39;;;;;;;15.70;3.63;;;;;;;;;;5037868;28;20045;-75
2023/10/15 00:15:07;;;;;;;11.65;1.95;;;;;;;;;;5042875;28;20156;-72
2023/10/15 00:17:34;;;;;;;12.30;2.90;;;;;;;;;;5048175;28;20152;-72
2023/10/15 00:20:03;;;;;;;19.23;3.17;;;;;;;;;;5047921;28;20102;-72
2023/10/15 00:22:29;;;;;;;18.02;3.85;;;;;;;;;;5047884;28;20049;-72
2023/10/15 00:24:55;;;;;;;13.60;3.38;;;;;;;;;;5048233;28;20046;-71
2023/10/15 00:27:22;;;;;;;17.80;2.70;;;;;;;;;;5048414;28;20095;-72
2023/10/15 00:29:48;;;;;;;15.13;2.03;;;;;;;;;;5048548;28;20057;-72
2023/10/15 00:32:15;;;;;;;9.20;2.25;;;;;;;;;;5047766;28;20049;-71
2023/10/15 00:34:41;;;;;;;14.45;3.10;;;;;;;;;;5047813;28;20141;-72
2023/10/15 00:37:08;;;;;;;9.00;1.88;;;;;;;;;;5047793;28;20048;-72
2023/10/15 00:39:41;;;;;;;20.40;3.03;;;;;;;;;;5047614;28;20140;-72
2023/10/15 00:42:08;;;;;;;20.23;3.70;;;;;;;;;;5047936;28;20045;-73
2023/10/15 00:44:34;;;;;;;7.20;2.28;;;;;;;;;;5047719;28;20053;-72
2023/10/15 00:47:03;;;;;;;8.77;2.10;;;;;;;;;;5047680;28;20056;-72
2023/10/15 00:49:30;;;;;;;14.07;1.85;;;;;;;;;;5047516;28;20620;-73
2023/10/15 00:52:01;;;;;;;9.70;1.83;;;;;;;;;;5047657;28;20262;-73
2023/10/15 00:54:31;;;;;;;15.98;2.15;;;;;;;;;;5047607;28;20049;-72
2023/10/15 00:57:15;;;;;;;10.77;1.85;;;;;;;;;;5049117;28;20391;-72
2023/10/15 00:59:45;;;;;;;17.15;2.58;;;;;;;;;;5051237;28;20072;-72
2023/10/15 01:02:12;;;;;;;16.25;3.35;;;;;;;;;;5050410;28;20132;-72
2023/10/15 01:04:41;;;;;;;11.50;2.83;;;;;;;;;;5051185;28;20140;-72
2023/10/15 01:07:32;;;;;;;10.65;2.53;;;;;;;;;;5041792;28;20060;-72
2023/10/15 01:09:54;;;;;;;15.88;2.45;;;;;;;;;;5051153;28;20041;-72
2023/10/15 01:12:32;;;;;;;14.68;2.45;;;;;;;;;;5050941;28;20076;-72
2023/10/15 01:14:59;;;;;;;11.20;2.38;;;;;;;;;;5050929;28;20052;-71
2023/10/15 01:17:36;;;;;;;10.10;1.70;;;;;;;;;;5051333;28;20256;-72
2023/10/15 01:20:06;;;;;;;10.32;1.95;;;;;;;;;;5050762;28;20391;-72
2023/10/15 01:22:33;;;;;;;11.32;2.05;;;;;;;;;;5051001;28;20072;-72
2023/10/15 01:25:09;;;;;;;13.80;2.88;;;;;;;;;;5050544;28;20186;-72
2023/10/15 01:27:36;;;;;;;10.45;2.33;;;;;;;;;;5050835;28;20047;-71
2023/10/15 01:30:03;;;;;;;12.30;2.55;;;;;;;;;;5050837;28;20045;-72
2023/10/15 01:32:38;;;;;;;20.80;2.10;;;;;;;;;;5050802;28;20102;-71
2023/10/15 01:35:10;;;;;;;15.35;2.97;;;;;;;;;;5050865;28;20094;-72
2023/10/15 01:37:37;;;;;;;17.10;2.80;;;;;;;;;;5051704;28;20476;-71
2023/10/15 01:42:42;;;;;;;8.27;2.30;;;;;;;;;;5050740;28;20578;-72
2023/10/15 01:47:54;;;;;;;15.90;4.20;;;;;;;;;;5050540;28;20457;-72
2023/10/15 01:50:23;;;;;;;11.43;4.50;;;;;;;;;;5050089;28;20075;-72
2023/10/15 01:52:54;;;;;;;12.65;3.63;;;;;;;;;;5050764;28;20057;-72
2023/10/15 01:55:21;;;;;;;13.23;3.55;;;;;;;;;;5051098;28;20107;-72
2023/10/15 01:57:47;;;;;;;13.13;2.40;;;;;;;;;;5049009;28;20055;-72
2023/10/15 02:00:33;;;;;;;13.50;2.85;;;;;;;;;;5050284;28;20055;-72
2023/10/15 02:03:00;;;;;;;19.38;3.80;;;;;;;;;;5045716;28;20458;-70
2023/10/15 02:05:40;;;;;;;9.68;2.28;;;;;;;;;;5044518;28;20487;-72
2023/10/15 02:08:08;;;;;;;8.95;2.38;;;;;;;;;;5044100;28;20128;-72
2023/10/15 02:10:39;;;;;;;7.70;2.28;;;;;;;;;;5049736;28;20789;-71
2023/10/15 02:13:11;;;;;;;14.43;2.92;;;;;;;;;;5049485;28;20095;-72
2023/10/15 02:15:41;;;;;;;18.95;3.17;;;;;;;;;;5049999;28;20049;-72
2023/10/15 02:18:08;;;;;;;11.25;3.30;;;;;;;;;;5049618;28;20077;-72
2023/10/15 02:23:18;;;;;;;13.23;2.88;;;;;;;;;;5049416;28;20088;-72
2023/10/15 02:26:01;;;;;;;16.35;2.75;;;;;;;;;;5049480;28;20041;-72
2023/10/15 02:28:31;;;;;;;13.68;2.22;;;;;;;;;;5049604;28;20492;-72
2023/10/15 02:31:22;;;;;;;17.67;2.80;;;;;;;;;;5049350;28;20128;-72
2023/10/15 02:33:46;;;;;;;10.48;2.50;;;;;;;;;;5049168;28;20132;-72
2023/10/15 02:36:16;;;;;;;12.77;2.80;;;;;;;;;;5049550;28;20048;-72
2023/10/15 02:38:59;;;;;;;10.32;2.25;;;;;;;;;;5049135;28;20049;-72
2023/10/15 02:41:31;;;;;;;14.40;2.75;;;;;;;;;;5049450;28;20199;-71
2023/10/15 02:43:57;;;;;;;9.77;2.22;;;;;;;;;;5064386;28;20537;-72
2023/10/15 02:46:35;;;;;;;11.60;2.58;;;;;;;;;;5049141;28;20090;-72
2023/10/15 02:49:15;;;;;;;12.52;1.90;;;;;;;;;;5049200;28;20053;-71
2023/10/15 02:51:42;;;;;;;11.75;2.40;;;;;;;;;;5051957;28;20051;-72
2023/10/15 02:56:59;;;;;;;14.85;2.88;;;;;;;;;;5049070;28;20533;-71
2023/10/15 02:59:30;;;;;;;15.30;2.75;;;;;;;;;;5048877;28;20058;-72
2023/10/15 03:01:57;;;;;;;14.80;2.80;;;;;;;;;;5048308;28;20192;-71
2023/10/15 03:04:32;;;;;;;14.23;2.92;;;;;;;;;;5042019;28;20099;-72
2023/10/15 03:07:17;;;;;;;9.73;2.05;;;;;;;;;;5033097;28;20047;-71
2023/10/15 03:09:48;;;;;;;11.48;2.80;;;;;;;;;;5049241;28;20053;-72
2023/10/15 03:12:16;;;;;;;10.32;3.13;;;;;;;;;;5048689;28;20052;-71
2023/10/15 03:14:42;;;;;;;13.30;3.72;;;;;;;;;;5050134;28;20076;-72
2023/10/15 03:17:24;;;;;;;19.48;2.80;;;;;;;;;;5050265;28;20132;-72
2023/10/15 03:20:10;;;;;;;11.45;2.33;;;;;;;;;;5048630;28;20057;-72
2023/10/15 03:22:38;;;;;;;19.65;3.38;;;;;;;;;;5048577;28;20084;-72
2023/10/15 03:25:13;;;;;;;20.08;2.78;;;;;;;;;;5048281;28;20114;-72
2023/10/15 03:27:39;;;;;;;7.72;2.40;;;;;;;;;;5048734;28;20114;-72
2023/10/15 03:30:09;;;;;;;29.00;3.00;;;;;;;;;;5048736;28;20136;-71
2023/10/15 03:32:44;;;;;;;14.55;2.65;;;;;;;;;;5049190;28;20215;-72
2023/10/15 03:35:18;;;;;;;10.23;2.50;;;;;;;;;;5048723;28;20449;-72
2023/10/15 03:37:45;;;;;;;13.98;2.22;;;;;;;;;;5049057;28;20052;-72
2023/10/15 03:40:31;;;;;;;14.90;3.15;;;;;;;;;;5049582;28;20056;-71
2023/10/15 03:43:06;;;;;;;18.98;3.42;;;;;;;;;;5049883;28;20051;-72
2023/10/15 03:45:33;;;;;;;16.50;3.65;;;;;;;;;;5048437;28;20128;-73
2023/10/15 03:48:00;;;;;;;15.20;3.15;;;;;;;;;;5047948;28;20148;-72
2023/10/15 03:50:29;;;;;;;16.27;2.40;;;;;;;;;;5048224;28;20099;-72
2023/10/15 03:52:58;;;;;;;16.20;3.00;;;;;;;;;;5063790;28;20049;-72
2023/10/15 03:55:25;;;;;;;21.85;4.90;;;;;;;;;;5048609;28;20091;-72
2023/10/15 03:57:52;;;;;;;12.23;3.53;;;;;;;;;;5048196;28;20051;-72
2023/10/15 04:03:28;;;;;;;20.17;2.50;;;;;;;;;;5042168;28;20057;-72
2023/10/15 04:06:01;;;;;;;8.38;2.35;;;;;;;;;;5045871;28;20140;-72
2023/10/15 04:08:30;;;;;;;11.85;2.10;;;;;;;;;;5048013;28;20060;-72
2023/10/15 04:10:58;;;;;;;11.70;2.55;;;;;;;;;;5047564;28;20130;-72
2023/10/15 04:13:27;;;;;;;14.68;2.45;;;;;;;;;;5048147;28;20081;-72
2023/10/15 04:15:54;;;;;;;9.05;2.05;;;;;;;;;;5047984;28;20049;-72
2023/10/15 04:18:24;;;;;;;9.68;2.13;;;;;;;;;;5048443;28;20122;-72
2023/10/15 04:20:51;;;;;;;16.08;3.42;;;;;;;;;;5047915;28;20117;-72
2023/10/15 04:23:30;;;;;;;14.43;2.30;;;;;;;;;;5048258;28;20520;-71
2023/10/15 04:26:01;;;;;;;17.83;2.95;;;;;;;;;;5047789;28;20150;-72
2023/10/15 04:28:28;;;;;;;7.67;2.20;;;;;;;;;;5048308;28;20048;-71
2023/10/15 04:30:56;;;;;;;7.22;2.00;;;;;;;;;;5048284;28;20816;-72
2023/10/15 04:33:26;;;;;;;14.55;2.13;;;;;;;;;;5052005;28;20087;-71
2023/10/15 04:35:53;;;;;;;12.13;2.47;;;;;;;;;;5051515;28;20049;-72
2023/10/15 04:38:22;;;;;;;19.15;2.70;;;;;;;;;;5051762;28;20103;-72
2023/10/15 04:43:27;;;;;;;14.43;4.15;;;;;;;;;;5051667;28;20123;-72
2023/10/15 04:45:54;;;;;;;15.20;3.05;;;;;;;;;;5051582;28;20053;-71
2023/10/15 04:48:26;;;;;;;15.45;2.63;;;;;;;;;;5051693;28;20045;-73
2023/10/15 04:50:53;;;;;;;16.42;2.28;;;;;;;;;;5051741;28;20045;-71
2023/10/15 04:55:54;;;;;;;10.48;2.88;;;;;;;;;;5050903;28;20045;-72
2023/10/15 04:58:21;;;;;;;23.90;2.92;;;;;;;;;;5036680;28;20049;-71
2023/10/15 05:00:48;;;;;;;11.50;2.10;;;;;;;;;;5051132;28;20499;-71
2023/10/15 05:03:15;;;;;;;10.13;1.67;;;;;;;;;;5039981;28;20608;-70
2023/10/15 05:05:42;;;;;;;12.85;2.95;;;;;;;;;;5043402;28;20049;-71
2023/10/15 05:08:12;;;;;;;12.95;3.15;;;;;;;;;;5051462;28;20061;-70
2023/10/15 05:10:44;;;;;;;29.90;2.90;;;;;;;;;;5051248;28;20187;-70
2023/10/15 05:13:12;;;;;;;13.80;2.08;;;;;;;;;;5051068;28;20056;-71
2023/10/15 05:15:42;;;;;;;15.75;2.88;;;;;;;;;;5050914;28;20436;-72
2023/10/15 05:18:09;;;;;;;19.25;3.28;;;;;;;;;;5051199;28;20128;-72
2023/10/15 05:20:39;;;;;;;16.45;2.83;;;;;;;;;;5066225;28;20048;-72
2023/10/15 05:23:05;;;;;;;15.23;3.25;;;;;;;;;;5050862;28;20045;-72
2023/10/15 05:25:32;;;;;;;17.67;2.78;;;;;;;;;;5050763;28;20123;-72
2023/10/15 05:28:01;;;;;;;14.43;2.28;;;;;;;;;;5050739;28;20049;-71
2023/10/15 05:30:28;;;;;;;14.45;3.13;;;;;;;;;;5050619;28;20085;-71
2023/10/15 05:32:54;;;;;;;13.25;1.95;;;;;;;;;;5050471;28;20668;-72
2023/10/15 05:35:21;;;;;;;21.02;2.53;;;;;;;;;;5051030;28;20106;-72
2023/10/15 05:37:47;;;;;;;11.80;2.22;;;;;;;;;;5050982;28;20067;-72
2023/10/15 05:40:17;;;;;;;16.50;3.42;;;;;;;;;;5050834;28;20041;-72
2023/10/15 05:42:43;;;;;;;22.20;2.97;;;;;;;;;;5050829;28;20049;-72
2023/10/15 05:45:10;;;;;;;17.83;3.40;;;;;;;;;;5045105;28;20128;-72
2023/10/15 05:47:36;;;;;;;21.00;3.33;;;;;;;;;;5040672;28;20049;-72
2023/10/15 05:50:04;;;;;;;14.77;2.60;;;;;;;;;;5050611;28;20076;-72
2023/10/15 05:52:31;;;;;;;11.13;2.00;;;;;;;;;;5050686;28;20048;-72
2023/10/15 05:55:00;;;;;;;15.40;2.72;;;;;;;;;;5050777;28;20049;-70
2023/10/15 05:57:27;;;;;;;18.15;3.10;;;;;;;;;;5039353;28;20053;-72
2023/10/15 05:59:56;;;;;;;21.38;3.63;;;;;;;;;;5045711;28;20124;-72
2023/10/15 06:02:22;;;;;;;12.95;2.80;;;;;;;;;;5050365;28;20053;-72
2023/10/15 06:04:49;;;;;;;16.55;4.00;;;;;;;;;;5052313;28;20049;-72
2023/10/15 06:07:15;;;;;;;15.57;2.65;;;;;;;;;;5041729;28;20300;-72
2023/10/15 06:09:45;;;;;;;9.75;2.25;;;;;;;;;;5050139;28;20045;-73
2023/10/15 06:12:13;;;;;;;14.38;2.53;;;;;;;;;;5050151;28;20429;-72
2023/10/15 06:14:39;;;;;;;14.77;3.45;;;;;;;;;;5050224;28;20041;-72
2023/10/15 06:17:06;;;;;;;16.73;2.33;;;;;;;;;;5050070;28;20049;-72
2023/10/15 06:19:34;;;;;;;15.98;2.40;;;;;;;;;;5050321;28;20107;-72
2023/10/15 06:22:01;;;;;;;16.55;2.75;;;;;;;;;;5050088;28;20048;-72
2023/10/15 06:24:27;;;;;;;11.77;3.22;;;;;;;;;;5049801;28;20080;-71
2023/10/15 06:26:54;;;;;;;20.77;3.75;;;;;;;;;;5050816;28;20081;-72
2023/10/15 06:29:20;;;;;;;19.02;2.17;;;;;;;;;;5050439;28;20068;-72
2023/10/15 06:31:46;;;;;;;22.33;3.15;;;;;;;;;;5051852;28;20044;-72
2023/10/15 06:34:15;;;;;;;12.35;4.13;;;;;;;;;;5050039;28;20106;-73
2023/10/15 06:36:42;;;;;;;9.75;2.45;;;;;;;;;;5049872;28;20053;-72
2023/10/15 06:39:08;;;;;;;17.77;2.60;;;;;;;;;;5049660;28;20048;-71
2023/10/15 06:41:36;;;;;;;10.80;2.55;;;;;;;;;;5049600;28;20049;-72
2023/10/15 06:44:03;;;;;;;13.48;3.20;;;;;;;;;;5049291;28;20056;-71
2023/10/15 06:46:31;;;;;;;12.10;2.55;;;;;;;;;;5049305;28;20045;-72
2023/10/15 06:48:57;;;;;;;13.57;2.70;;;;;;;;;;5048148;28;20052;-72
2023/10/15 06:51:26;;;;;;;16.90;3.42;;;;;;;;;;5048987;28;20516;-71
2023/10/15 06:53:52;;;;;;;13.43;2.90;;;;;;;;;;5049237;28;20103;-72
2023/10/15 06:56:19;;;;;;;17.35;2.78;;;;;;;;;;5050091;28;20110;-71
2023/10/15 06:58:45;;;;;;;12.32;2.35;;;;;;;;;;5049105;28;20079;-71
2023/10/15 07:01:13;;;;;;;18.20;3.50;;;;;;;;;;5048776;28;20513;-72
2023/10/15 07:03:39;;;;;;;14.95;2.45;;;;;;;;;;5045379;28;20650;-71
2023/10/15 07:06:06;;;;;;;15.48;3.10;;;;;;;;;;5037841;28;20057;-71
2023/10/15 07:08:33;;;;;;;8.45;2.05;;;;;;;;;;5048283;28;20132;-71
2023/10/15 07:10:59;;;;;;;13.50;1.92;;;;;;;;;;5048448;28;20477;-72
2023/10/15 07:13:26;;;;;;;19.80;3.15;;;;;;;;;;5048804;28;20045;-72
2023/10/15 07:15:54;;;;;;;19.90;2.80;;;;;;;;;;5049025;28;20041;-72
2023/10/15 07:18:20;;;;;;;13.98;3.17;;;;;;;;;;5048731;28;20087;-72
2023/10/15 07:20:47;;;;;;;14.43;2.35;;;;;;;;;;5049098;28;20052;-72
2023/10/15 07:23:14;;;;;;;9.75;1.63;;;;;;;;;;5048744;28;20056;-70
2023/10/15 07:25:42;;;;;;;9.30;2.00;;;;;;;;;;5049177;28;20045;-72
2023/10/15 07:28:10;;;;;;;11.63;2.58;;;;;;;;;;5048390;28;20052;-71
2023/10/15 07:30:36;;;;;;;11.45;1.55;;;;;;;;;;5040377;28;20571;-72
2023/10/15 07:33:03;;;;;;;12.30;2.60;;;;;;;;;;5040748;28;20079;-71
2023/10/15 07:35:30;;;;;;;6.55;2.58;;;;;;;;;;5048308;28;20048;-70
2023/10/15 07:37:57;;;;;;;8.10;2.92;;;;;;;;;;5048362;28;20481;-72
2023/10/15 07:40:27;;;;;;;8.95;2.28;;;;;;;;;;5048516;28;20170;-71
2023/10/15 07:42:59;;;;;;;13.05;2.60;;;;;;;;;;5048304;28;20059;-71
2023/10/15 07:45:27;;;;;;;12.65;2.03;;;;;;;;;;5048447;28;20063;-70
2023/10/15 07:47:59;;;;;;;9.10;2.05;;;;;;;;;;5045434;28;20053;-71
2023/10/15 07:50:27;;;;;;;11.15;2.47;;;;;;;;;;5032865;28;20564;-70
2023/10/15 07:52:54;;;;;;;8.70;1.67;;;;;;;;;;5037108;28;20079;-74
2023/10/15 07:55:24;;;;;;;9.10;1.73;;;;;;;;;;5033451;28;20052;-76
2023/10/15 07:57:51;;;;;;;8.32;1.75;;;;;;;;;;5030128;28;20457;-71
2023/10/15 08:00:22;;;;;;;12.32;1.98;;;;;;;;;;5036278;28;20072;-77
2023/10/15 08:02:52;;;;;;;4.53;1.92;;;;;;;;;;5034503;28;20053;-75
2023/10/15 08:05:21;;;;;;;9.43;1.75;;;;;;;;;;5030127;28;20069;-77
2023/10/15 08:07:50;;;;;;;15.07;2.75;;;;;;;;;;5038973;28;20098;-73
2023/10/15 08:10:20;;;;;;;11.20;2.28;;;;;;;;;;5040273;28;20045;-70
2023/10/15 08:12:48;;;;;;;10.02;2.03;;;;;;;;;;5047751;28;20057;-68
2023/10/15 08:15:15;;;;;;;15.93;2.05;;;;;;;;;;5032151;28;20053;-67
2023/10/15 08:17:42;;;;;;;11.95;1.80;;;;;;;;;;5032888;28;20053;-73
2023/10/15 08:20:09;;;;;;;10.38;1.90;;;;;;;;;;5039128;28;20049;-73
2023/10/15 08:22:36;;;;;;;7.47;1.95;;;;;;;;;;5051029;28;20060;-73
2023/10/15 08:25:03;;;;;;;8.10;1.42;;;;;;;;;;5066895;28;20049;-71
2023/10/15 08:27:30;;;;;;;8.25;1.65;;;;;;;;;;5042707;28;20084;-72
2023/10/15 08:29:57;;;;;;;10.52;1.70;;;;;;;;;;5036011;28;20494;-74
2023/10/15 08:32:26;;;;;;;14.73;2.03;;;;;;;;;;5044223;28;20509;-72
2023/10/15 08:34:53;;;;;;;5.45;1.60;;;;;;;;;;5041603;28;20767;-72
2023/10/15 08:37:20;;;;;;;8.10;2.63;;;;;;;;;;5059568;28;20048;-73
2023/10/15 08:39:46;;;;;;;8.38;1.77;;;;;;;;;;5042237;28;20133;-69
2023/10/15 08:42:13;;;;;;;10.32;1.80;;;;;;;;;;5043347;28;20050;-66
2023/10/15 08:44:40;;;;;;;8.88;1.83;;;;;;;;;;5037209;28;20052;-66
2023/10/15 08:47:09;;;;;;;7.43;1.60;;;;;;;;;;5050700;28;20045;-68
2023/10/15 08:49:35;;;;;;;7.03;1.73;;;;;;;;;;5041113;28;20045;-67
2023/10/15 08:52:06;;;;;;;6.78;2.25;;;;;;;;;;5051665;28;20053;-73
2023/10/15 08:54:38;;;;;;;3.10;1.73;;;;;;;;;;5044460;28;20145;-74
2023/10/15 08:57:08;;;;;;;11.95;1.83;;;;;;;;;;5050171;28;20103;-74
2023/10/15 08:59:38;;;;;;;6.13;1.60;;;;;;;;;;5046389;28;20493;-69
2023/10/15 09:02:08;;;;;;;8.07;1.65;;;;;;;;;;5047557;28;20045;-70
2023/10/15 09:04:35;;;;;;;8.65;1.50;;;;;;;;;;5043219;28;20132;-71
2023/10/15 09:07:04;;;;;;;7.53;1.40;;;;;;;;;;5046225;28;20079;-71
2023/10/15 09:09:34;;;;;;;6.47;1.40;;;;;;;;;;5046137;28;20049;-71
2023/10/15 09:12:01;;;;;;;6.07;1.63;;;;;;;;;;5047348;28;20056;-71
2023/10/15 09:14:36;;;;;;;4.97;1.30;;;;;;;;;;5045962;28;20077;-71
2023/10/15 09:17:03;;;;;;;6.95;1.23;;;;;;;;;;5046561;28;20616;-70
2023/10/15 09:19:32;;;;;;;3.70;1.30;;;;;;;;;;5046042;28;20059;-69
2023/10/15 09:21:58;;;;;;;12.52;1.60;;;;;;;;;;5062895;28;20041;-66
2023/10/15 09:24:26;;;;;;;9.40;1.98;;;;;;;;;;5042476;28;20084;-66
2023/10/15 09:26:53;;;;;;;6.43;1.15;;;;;;;;;;5047101;28;20049;-65
2023/10/15 09:29:20;;;;;;;5.63;1.70;;;;;;;;;;5043552;28;20056;-68
2023/10/15 09:31:47;;;;;;;12.70;1.70;;;;;;;;;;5047891;28;20561;-68
2023/10/15 09:34:13;;;;;;;9.00;1.90;;;;;;;;;;5040445;28;20087;-68
2023/10/15 09:36:40;;;;;;;3.92;1.00;;;;;;;;;;5032272;28;20060;-68
2023/10/15 09:39:12;;;;;;;4.93;1.38;;;;;;;;;;5043663;28;20043;-70
2023/10/15 09:41:40;;;;;;;3.47;0.95;;;;;;;;;;5045003;28;20132;-71
2023/10/15 09:44:16;;;;;;;7.18;1.98;;;;;;;;;;5045482;28;20572;-72
2023/10/15 09:46:46;;;;;;;4.78;1.10;;;;;;;;;;5034640;28;20438;-69
2023/10/15 09:49:13;;;;;;;13.00;1.30;;;;;;;;;;5038404;28;20487;-70
2023/10/15 09:51:40;;;;;;;4.75;0.73;;;;;;;;;;5038506;28;20136;-70
2023/10/15 09:54:11;;;;;;;6.90;1.52;;;;;;;;;;5036295;28;20041;-70
2023/10/15 09:56:40;;;;;;;3.00;1.00;;;;;;;;;;5048660;28;20081;-70
2023/10/15 09:59:09;;;;;;;7.80;1.45;;;;;;;;;;5033208;28;20036;-72
2023/10/15 10:01:38;;;;;;;3.80;1.63;;;;;;;;;;5048556;28;20041;-71
2023/10/15 10:04:24;;;;;;;5.30;0.75;;;;;;;;;;5063771;28;20094;-73
2023/10/15 10:07:10;;;;;;;4.30;0.90;;;;;;;;;;5042289;28;20041;-71
2023/10/15 10:09:55;;;;;;;3.70;0.73;;;;;;;;;;5043606;28;20128;-72
2023/10/15 10:12:42;;;;;;;6.70;1.52;;;;;;;;;;5048751;28;20049;-72
2023/10/15 10:15:28;;;;;;;4.72;1.10;;;;;;;;;;5039885;28;20080;-75
2023/10/15 10:17:55;;;;;;;8.65;1.35;;;;;;;;;;5049088;28;20137;-73
2023/10/15 10:20:31;;;;;;;2.63;1.20;;;;;;;;;;5044867;28;20052;-73
2023/10/15 10:22:59;;;;;;;5.78;2.50;;;;;;;;;;5048980;28;20548;-72
2023/10/15 10:25:39;;;;;;;4.03;1.23;;;;;;;;;;5047254;28;20127;-70
2023/10/15 10:28:10;;;;;;;6.28;0.88;;;;;;;;;;5048919;28;20041;-70
2023/10/15 10:30:57;;;;;;;5.22;1.05;;;;;;;;;;5047559;28;20073;-73
2023/10/15 10:33:44;;;;;;;3.75;0.82;;;;;;;;;;5048445;28;20468;-71
2023/10/15 10:36:14;;;;;;;3.28;1.00;;;;;;;;;;5048868;28;20529;-72
2023/10/15 10:38:45;;;;;;;6.35;1.10;;;;;;;;;;5047821;28;20076;-73
2023/10/15 10:41:16;;;;;;;4.82;1.25;;;;;;;;;;5048404;28;20444;-72
2023/10/15 10:43:46;;;;;;;4.10;1.00;;;;;;;;;;5047023;28;20048;-69
2023/10/15 10:46:22;;;;;;;4.18;1.60;;;;;;;;;;5043975;28;20234;-70
2023/10/15 10:49:04;;;;;;;4.82;1.00;;;;;;;;;;5029070;28;20081;-70
2023/10/15 10:51:33;;;;;;;4.13;1.00;;;;;;;;;;5037111;28;20080;-70
2023/10/15 10:54:00;;;;;;;2.50;0.70;;;;;;;;;;5027832;28;20158;-71
2023/10/15 10:56:38;;;;;;;9.70;1.55;;;;;;;;;;5035257;28;20045;-71
2023/10/15 10:59:06;;;;;;;3.60;1.00;;;;;;;;;;5036175;28;20041;-71
2023/10/15 11:01:34;;;;;;;5.63;1.10;;;;;;;;;;5038925;28;20045;-72
2023/10/15 11:04:02;;;;;;;6.63;0.77;;;;;;;;;;5043145;28;20080;-70
2023/10/15 11:06:28;;;;;;;3.42;1.15;;;;;;;;;;5034367;28;20053;-71
2023/10/15 11:08:55;;;;;;;3.35;0.98;;;;;;;;;;5030002;28;20471;-71
2023/10/15 11:11:21;;;;;;;4.97;1.05;;;;;;;;;;5029815;28;20556;-71
2023/10/15 11:13:48;;;;;;;3.90;1.25;;;;;;;;;;5029101;28;20204;-72
2023/10/15 11:16:18;;;;;;;3.42;1.25;;;;;;;;;;5038775;28;20456;-71
2023/10/15 11:18:46;;;;;;;5.18;0.80;;;;;;;;;;5042444;28;20112;-72
2023/10/15 11:21:13;;;;;;;11.93;6.32;;;;;;;;;;5039339;28;20517;-73
2023/10/15 11:23:40;;;;;;;6.80;1.70;;;;;;;;;;5041456;28;20053;-70
2023/10/15 11:26:08;;;;;;;4.45;0.77;;;;;;;;;;5039531;28;20049;-71
2023/10/15 11:28:35;;;;;;;2.92;0.60;;;;;;;;;;5038034;28;20064;-70
2023/10/15 11:31:02;;;;;;;3.90;0.73;;;;;;;;;;5031464;28;20436;-70
2023/10/15 11:33:28;;;;;;;4.93;1.88;;;;;;;;;;5039786;28;20052;-68
2023/10/15 11:35:55;;;;;;;5.43;0.63;;;;;;;;;;5034633;28;20103;-69
2023/10/15 11:38:31;;;;;;;4.15;1.58;;;;;;;;;;5036647;28;20041;-70
2023/10/15 11:40:57;;;;;;;2.22;1.40;;;;;;;;;;5035325;28;20074;-69
2023/10/15 11:43:25;;;;;;;1.20;0.40;;;;;;;;;;5037246;28;20057;-69
2023/10/15 11:45:56;;;;;;;4.03;0.80;;;;;;;;;;5027288;28;20076;-66
2023/10/15 11:48:22;;;;;;;3.50;1.77;;;;;;;;;;5031883;28;20186;-67
2023/10/15 11:50:49;;;;;;;2.80;0.88;;;;;;;;;;5044701;28;20674;-65
2023/10/15 11:53:16;;;;;;;3.70;1.27;;;;;;;;;;5031168;28;20050;-68
2023/10/15 11:55:47;;;;;;;2.78;0.88;;;;;;;;;;5037360;28;20090;-65
2023/10/15 11:58:16;;;;;;;5.00;1.10;;;;;;;;;;5038560;28;20053;-67
2023/10/15 12:00:47;;;;;;;3.88;0.50;;;;;;;;;;5037514;28;20103;-66
2023/10/15 12:03:20;;;;;;;3.08;0.90;;;;;;;;;;5034347;28;20053;-65
2023/10/15 12:05:49;;;;;;;4.78;1.55;;;;;;;;;;5035352;28;20107;-66
2023/10/15 12:08:16;;;;;;;9.80;2.50;;;;;;;;;;5032436;28;20041;-65
2023/10/15 12:10:43;;;;;;;6.90;1.10;;;;;;;;;;5032039;28;20041;-65
2023/10/15 12:13:12;;;;;;;8.13;1.10;;;;;;;;;;5044783;28;20102;-65
2023/10/15 12:15:38;;;;;;;4.50;1.30;;;;;;;;;;5044801;28;20056;-68
2023/10/15 12:18:05;;;;;;;3.05;0.93;;;;;;;;;;5045543;28;20072;-66
2023/10/15 12:20:31;;;;;;;6.05;1.30;;;;;;;;;;5040719;28;20050;-67
2023/10/15 12:22:58;;;;;;;2.75;1.00;;;;;;;;;;5038144;28;20053;-69
2023/10/15 12:25:25;;;;;;;4.10;0.93;;;;;;;;;;5027344;28;20064;-65
2023/10/15 12:27:52;;;;;;;1.77;0.88;;;;;;;;;;5037301;28;20132;-68
2023/10/15 12:30:27;;;;;;;3.30;0.82;;;;;;;;;;5035144;28;20116;-68
2023/10/15 12:32:55;;;;;;;3.88;1.30;;;;;;;;;;5039341;28;20047;-67
2023/10/15 12:35:22;;;;;;;4.25;1.52;;;;;;;;;;5030279;28;20057;-68
2023/10/15 12:38:01;;;;;;;2.10;0.75;;;;;;;;;;5049951;28;20132;-68
2023/10/15 12:40:34;;;;;;;5.30;0.93;;;;;;;;;;5034829;28;20046;-68
2023/10/15 12:43:01;;;;;;;6.05;1.15;;;;;;;;;;5033505;28;20091;-66
2023/10/15 12:45:28;;;;;;;3.70;1.00;;;;;;;;;;5026691;28;20114;-67
2023/10/15 12:47:58;;;;;;;3.90;1.10;;;;;;;;;;5027842;28;20037;-69
2023/10/15 12:50:26;;;;;;;2.47;1.20;;;;;;;;;;5043958;28;20374;-66
2023/10/15 12:52:55;;;;;;;3.50;1.00;;;;;;;;;;5040164;28;20533;-69
2023/10/15 12:55:25;;;;;;;3.15;1.10;;;;;;;;;;5041063;28;20056;-72
2023/10/15 12:57:53;;;;;;;9.00;0.90;;;;;;;;;;5037832;28;20050;-70
2023/10/15 13:00:26;;;;;;;12.00;2.55;;;;;;;;;;5038164;28;20148;-69
2023/10/15 13:02:53;;;;;;;2.80;0.70;;;;;;;;;;5047603;28;20129;-68
2023/10/15 13:05:23;;;;;;;6.47;1.40;;;;;;;;;;5030398;28;20071;-75
2023/10/15 13:07:52;;;;;;;3.70;0.70;;;;;;;;;;5035156;28;20485;-71
2023/10/15 13:10:20;;;;;;;1.60;0.60;;;;;;;;;;5034395;28;20072;-74
2023/10/15 13:12:50;;;;;;;5.45;1.33;;;;;;;;;;5050259;28;20064;-72
2023/10/15 13:15:18;;;;;;;2.40;0.80;;;;;;;;;;5051027;28;20155;-72
2023/10/15 13:17:45;;;;;;;2.78;1.08;;;;;;;;;;5050701;28;20443;-72
2023/10/15 13:20:13;;;;;;;4.03;0.68;;;;;;;;;;5036138;28;20045;-72
2023/10/15 13:22:41;;;;;;;3.65;1.38;;;;;;;;;;5048464;28;20046;-70
2023/10/15 13:25:08;;;;;;;2.58;0.98;;;;;;;;;;5032591;28;20053;-74
2023/10/15 13:27:35;;;;;;;1.38;0.40;;;;;;;;;;5039605;28;20466;-70
2023/10/15 13:30:02;;;;;;;3.60;0.77;;;;;;;;;;5041481;28;20415;-71
2023/10/15 13:32:29;;;;;;;3.65;0.70;;;;;;;;;;5037840;28;20108;-72
2023/10/15 13:34:56;;;;;;;2.95;1.08;;;;;;;;;;5039140;28;20053;-73
2023/10/15 13:37:22;;;;;;;3.45;0.90;;;;;;;;;;5051032;28;20046;-69
2023/10/15 13:39:56;;;;;;;7.95;1.30;;;;;;;;;;5031173;28;20052;-71
2023/10/15 13:42:22;;;;;;;6.85;2.97;;;;;;;;;;5048778;28;20488;-68
2023/10/15 13:44:49;;;;;;;6.78;0.77;;;;;;;;;;5042796;28;20037;-69
2023/10/15 13:47:15;;;;;;;2.47;0.80;;;;;;;;;;5036771;28;20080;-71
2023/10/15 13:49:42;;;;;;;1.80;0.77;;;;;;;;;;5036371;28;20053;-73
2023/10/15 13:52:08;;;;;;;27.35;13.35;;;;;;;;;;5049114;28;20674;-74
2023/10/15 13:54:36;;;;;;;5.40;0.55;;;;;;;;;;5032112;28;20048;-75
2023/10/15 13:57:03;;;;;;;4.68;1.60;;;;;;;;;;5041198;28;20524;-73
2023/10/15 13:59:30;;;;;;;1.70;0.50;;;;;;;;;;5046578;28;20046;-73
2023/10/15 14:01:57;;;;;;;4.18;1.88;;;;;;;;;;5030632;28;20037;-73
2023/10/15 14:04:24;;;;;;;1.52;0.50;;;;;;;;;;5042914;28;20045;-74
2023/10/15 14:06:52;;;;;;;4.05;0.52;;;;;;;;;;5037464;28;20045;-72
2023/10/15 14:09:21;;;;;;;3.42;0.68;;;;;;;;;;5040452;28;20128;-74
2023/10/15 14:11:49;;;;;;;10.00;2.70;;;;;;;;;;5029765;28;20061;-74
2023/10/15 14:14:15;;;;;;;5.78;1.25;;;;;;;;;;5039871;28;20060;-72
2023/10/15 14:16:42;;;;;;;3.00;0.88;;;;;;;;;;5042686;28;20053;-71
2023/10/15 14:19:08;;;;;;;4.78;1.50;;;;;;;;;;5060051;28;20042;-73
2023/10/15 14:21:35;;;;;;;3.67;0.98;;;;;;;;;;5043664;28;20048;-72
2023/10/15 14:24:05;;;;;;;4.38;0.45;;;;;;;;;;5031308;28;20052;-72
2023/10/15 14:26:31;;;;;;;2.10;0.60;;;;;;;;;;5034378;28;20072;-72
2023/10/15 14:28:58;;;;;;;7.80;1.85;;;;;;;;;;5034113;28;20048;-72
2023/10/15 14:31:25;;;;;;;3.50;1.00;;;;;;;;;;5037328;28;20094;-74
2023/10/15 14:33:52;;;;;;;8.90;1.40;;;;;;;;;;5035919;28;20103;-72
2023/10/15 14:36:25;;;;;;;3.97;1.17;;;;;;;;;;5045562;28;20106;-73
2023/10/15 14:38:52;;;;;;;10.07;2.95;;;;;;;;;;5046604;28;20041;-70
2023/10/15 14:41:18;;;;;;;6.18;3.25;;;;;;;;;;5046672;28;20079;-73
2023/10/15 14:43:45;;;;;;;2.95;1.02;;;;;;;;;;5042050;28;20057;-72
2023/10/15 14:46:15;;;;;;;9.52;3.65;;;;;;;;;;5029056;28;20541;-70
2023/10/15 14:48:42;;;;;;;4.22;1.17;;;;;;;;;;5030523;28;20782;-71
2023/10/15 14:51:10;;;;;;;9.30;1.88;;;;;;;;;;5046192;28;20080;-72
2023/10/15 14:53:37;;;;;;;3.35;0.77;;;;;;;;;;5040793;28;20052;-69
2023/10/15 14:56:04;;;;;;;6.35;1.23;;;;;;;;;;5036212;28;20068;-70
2023/10/15 14:58:30;;;;;;;5.55;1.25;;;;;;;;;;5041138;28;20042;-67
2023/10/15 15:00:57;;;;;;;5.93;1.33;;;;;;;;;;5029276;28;20449;-70
2023/10/15 15:03:23;;;;;;;4.03;1.08;;;;;;;;;;5026605;28;20309;-75
2023/10/15 15:05:50;;;;;;;3.95;0.80;;;;;;;;;;5030519;28;20229;-74